• Join FlightAware (Why Join?)
  • Login
  • US Flag 
12:34AM EDT


 

Airport Tracker/Info


-or-


 

Live Flight TrackerFlight Track Log ✈ FLG3861 ✈ 02-Apr-2014 ✈ KDTW - KBGM

Flight Track Log - Related Links

Times and Time Zones

All times are in EDT time to prevent confusion due to time zone crossing. See the FLG3861 flight status page for this flight to view local times or setup timezone preferences in your user account.

Time Position Orientation Groundspeed Altitude Reporting Facility
EDT Latitude Longitude Course Direction KTS MPH feet Rate Location/Type
09:51PM 42.2317 -83.3342 26° Northeast 148 170 1,400  Level Cleveland Center
09:51PM 42.2603 -83.3156 26° Northeast 188 216 2,700 1,860 Climbing Cleveland Center
09:52PM 42.2833 -83.2986 29° Northeast 186 214 4,100 1,980 Climbing Cleveland Center
09:53PM 42.3128 -83.2033 67° East 256 295 6,100 2,100 Climbing Cleveland Center
09:54PM 42.3172 -83.0975 87° East 275 316 8,500 2,340 Climbing Cleveland Center
09:55PM 42.3269 -82.9786 84° East 310 357 10,900 1,920 Climbing Cleveland Center
09:56PM 42.3381 -82.8469 83° East 350 403 12,500 1,560 Climbing Cleveland Center
09:57PM 42.3500 -82.6997 84° East 387 445 14,100 1,560 Climbing Cleveland Center
09:58PM 42.3625 -82.5464 84° East 409 471 15,700 1,560 Climbing Cleveland Center
09:59PM 42.3675 -82.3872 88° East 420 483 17,300 1,440 Climbing Cleveland Center
10:00PM 42.3592 -82.2253 94° East 429 494 18,700 1,380 Climbing Cleveland Center
10:01PM 42.3519 -82.0347 93° East 436 502 20,200 1,320 Climbing Cleveland Center
10:02PM 42.3450 -81.8606 93° East 449 517 21,400 1,200 Climbing Cleveland Center
10:03PM 42.3367 -81.6839 94° East 459 528 22,700 1,200 Climbing Cleveland Center
10:04PM 42.3283 -81.5069 94° East 464 534 23,900 1,080 Climbing Cleveland Center
10:05PM 42.3200 -81.3281 94° East 466 536 25,000 480 Climbing Cleveland Center
10:07PM 42.3100 -81.1433 94° East 480 552 25,000  Level Cleveland Center
10:08PM 42.3008 -80.9489 94° East 504 580 25,000  Level Cleveland Center
10:09PM 42.2894 -80.7503 94° East 519 597 25,000  Level Cleveland Center
10:10PM 42.2794 -80.5494 94° East 528 608 25,000  Level Cleveland Center
10:11PM 42.2672 -80.3428 95° East 541 623 25,000  Level Cleveland Center
10:12PM 42.2556 -80.1394 94° East 540 621 25,000  Level Cleveland Center
10:13PM 42.2425 -79.9367 95° East 540 621 25,000  Level Cleveland Center
10:14PM 42.2294 -79.7358 95° East 540 621 25,000  Level Cleveland Center
10:15PM 42.2139 -79.4917 95° East 546 628 25,000  Level Cleveland Center
10:16PM 42.2000 -79.2889 95° East 545 627 25,000  Level Cleveland Center
10:17PM 42.1894 -79.0864 94° East 546 628 25,000  Level Cleveland Center
10:18PM 42.1939 -78.8686 88° East 543 625 25,000  Level Cleveland Center
10:19PM 42.1986 -78.6658 88° East 543 625 25,000 -300 Level Cleveland Center
10:20PM 42.2011 -78.4628 89° East 544 626 24,400 -960 Descending Cleveland Center
10:21PM 42.2028 -78.2617 89° East 543 625 23,100 -1,320 Descending Cleveland Center
10:22PM 42.2053 -78.0689 89° East 523 602 21,800 -1,320 Descending Cleveland Center
10:23PM 42.2064 -77.8772 89° East 520 598 20,500 -1,320 Descending Cleveland Center
10:24PM 42.2089 -77.6897 89° East 513 590 19,200 -1,380 Descending Cleveland Center
10:25PM 42.2106 -77.4736 89° East 494 568 17,800 -1,080 Descending Cleveland Center
10:26PM 42.2111 -77.2989 90° East 475 547 17,000 -420 Descending Cleveland Center
10:27PM 42.2122 -77.1275 89° East 468 539 17,000 -720 Level Cleveland Center
10:28PM 42.2122 -76.9564 90° East 462 532 15,600 -1,860 Descending Cleveland Center
10:29PM 42.2122 -76.7975 90° East 432 497 13,200 -2,340 Descending Cleveland Center
10:30PM 42.2111 -76.6550 91° East 387 445 10,900 -2,040 Descending Cleveland Center
10:31PM 42.2114 -76.5364 90° East 321 369 9,100 -960 Descending Cleveland Center
10:32PM 42.2111 -76.4292 90° East 291 335 9,000 -540 Descending Cleveland Center
10:33PM 42.2103 -76.3208 91° East 284 327 8,000 -1,440 Descending Cleveland Center
10:34PM 42.1983 -76.1931 97° East 289 333 6,100 -1,800 Descending Cleveland Center
10:35PM 42.1664 -76.1050 116° Southeast 267 307 4,400 -1,080 Descending Cleveland Center
10:36PM 42.1189 -76.0275 130° Southeast 269 310 4,000 -360 Descending Cleveland Center
10:37PM 42.1003 -75.9892 123° Southeast 238 274 3,800 -360 Descending New York Center
10:38PM 42.1233 -75.9378 59° Northeast 154 177 3,400 -600 Descending New York Center
10:39PM 42.1544 -75.9375 360° North 112 129 2,700 -660 Descending New York Center
10:40PM 42.1828 -75.9592 330° Northwest 81 93 2,100 -600 Descending New York Center